sensor_id;sensor_type;location;lat;lon;timestamp;temperature;humidity
8684;DHT22;4379;59.744;18.206;2024-03-29T00:01:34;5.20;99.90
8684;DHT22;4379;59.744;18.206;2024-03-29T00:04:00;5.30;99.90
8684;DHT22;4379;59.744;18.206;2024-03-29T00:06:27;5.20;99.90
8684;DHT22;4379;59.744;18.206;2024-03-29T00:08:53;5.20;99.90
8684;DHT22;4379;59.744;18.206;2024-03-29T00:11:24;5.30;99.90
8684;DHT22;4379;59.744;18.206;2024-03-29T00:14:01;5.20;99.90
8684;DHT22;4379;59.744;18.206;2024-03-29T00:16:28;5.20;99.90
8684;DHT22;4379;59.744;18.206;2024-03-29T00:18:54;5.20;99.90
8684;DHT22;4379;59.744;18.206;2024-03-29T00:21:20;5.20;99.90
8684;DHT22;4379;59.744;18.206;2024-03-29T00:23:46;5.20;99.90
8684;DHT22;4379;59.744;18.206;2024-03-29T00:26:12;5.30;99.90
8684;DHT22;4379;59.744;18.206;2024-03-29T00:28:39;5.20;99.90
8684;DHT22;4379;59.744;18.206;2024-03-29T00:31:05;5.30;99.90
8684;DHT22;4379;59.744;18.206;2024-03-29T00:33:31;5.20;99.90
8684;DHT22;4379;59.744;18.206;2024-03-29T00:35:57;5.20;99.90
8684;DHT22;4379;59.744;18.206;2024-03-29T00:38:23;5.30;99.90
8684;DHT22;4379;59.744;18.206;2024-03-29T00:40:49;5.30;99.90
8684;DHT22;4379;59.744;18.206;2024-03-29T00:43:15;5.20;99.90
8684;DHT22;4379;59.744;18.206;2024-03-29T00:45:41;5.30;99.90
8684;DHT22;4379;59.744;18.206;2024-03-29T00:48:07;5.30;99.90
8684;DHT22;4379;59.744;18.206;2024-03-29T00:50:34;5.30;99.90
8684;DHT22;4379;59.744;18.206;2024-03-29T00:53:00;5.30;99.90
8684;DHT22;4379;59.744;18.206;2024-03-29T00:55:26;5.20;99.90
8684;DHT22;4379;59.744;18.206;2024-03-29T00:57:52;5.20;99.90
8684;DHT22;4379;59.744;18.206;2024-03-29T01:00:19;5.20;99.90
8684;DHT22;4379;59.744;18.206;2024-03-29T01:02:45;5.20;99.90
8684;DHT22;4379;59.744;18.206;2024-03-29T01:05:11;5.20;99.90
8684;DHT22;4379;59.744;18.206;2024-03-29T01:07:40;5.20;99.90
8684;DHT22;4379;59.744;18.206;2024-03-29T01:10:07;5.20;99.90
8684;DHT22;4379;59.744;18.206;2024-03-29T01:12:35;5.20;99.90
8684;DHT22;4379;59.744;18.206;2024-03-29T01:15:03;5.20;99.90
8684;DHT22;4379;59.744;18.206;2024-03-29T01:17:29;5.20;99.90
8684;DHT22;4379;59.744;18.206;2024-03-29T01:19:55;5.20;99.90
8684;DHT22;4379;59.744;18.206;2024-03-29T01:22:30;5.20;99.90
8684;DHT22;4379;59.744;18.206;2024-03-29T01:25:06;5.30;99.90
8684;DHT22;4379;59.744;18.206;2024-03-29T01:27:33;5.20;99.90
8684;DHT22;4379;59.744;18.206;2024-03-29T01:30:00;5.20;99.90
8684;DHT22;4379;59.744;18.206;2024-03-29T01:32:26;5.30;99.90
8684;DHT22;4379;59.744;18.206;2024-03-29T01:34:54;5.40;99.90
8684;DHT22;4379;59.744;18.206;2024-03-29T01:37:20;5.50;99.90
8684;DHT22;4379;59.744;18.206;2024-03-29T01:39:46;5.50;99.90
8684;DHT22;4379;59.744;18.206;2024-03-29T01:42:12;5.30;99.90
8684;DHT22;4379;59.744;18.206;2024-03-29T01:44:38;5.20;99.90
8684;DHT22;4379;59.744;18.206;2024-03-29T01:47:04;5.30;99.90
8684;DHT22;4379;59.744;18.206;2024-03-29T01:49:30;5.30;99.90
8684;DHT22;4379;59.744;18.206;2024-03-29T01:51:57;5.30;99.90
8684;DHT22;4379;59.744;18.206;2024-03-29T01:54:23;5.30;99.90
8684;DHT22;4379;59.744;18.206;2024-03-29T01:56:49;5.30;99.90
8684;DHT22;4379;59.744;18.206;2024-03-29T01:59:17;5.20;99.90
8684;DHT22;4379;59.744;18.206;2024-03-29T02:01:45;5.30;99.90
8684;DHT22;4379;59.744;18.206;2024-03-29T02:04:11;5.30;99.90
8684;DHT22;4379;59.744;18.206;2024-03-29T02:06:38;5.30;99.90
8684;DHT22;4379;59.744;18.206;2024-03-29T02:09:05;5.30;99.90
8684;DHT22;4379;59.744;18.206;2024-03-29T02:11:32;5.30;99.90
8684;DHT22;4379;59.744;18.206;2024-03-29T02:13:58;5.20;99.90
8684;DHT22;4379;59.744;18.206;2024-03-29T02:16:24;5.30;99.90
8684;DHT22;4379;59.744;18.206;2024-03-29T02:18:50;5.20;99.90
8684;DHT22;4379;59.744;18.206;2024-03-29T02:21:16;5.20;99.90
8684;DHT22;4379;59.744;18.206;2024-03-29T02:23:47;5.20;99.90
8684;DHT22;4379;59.744;18.206;2024-03-29T02:26:16;5.20;99.90
8684;DHT22;4379;59.744;18.206;2024-03-29T02:28:42;5.10;99.90
8684;DHT22;4379;59.744;18.206;2024-03-29T02:31:09;5.10;99.90
8684;DHT22;4379;59.744;18.206;2024-03-29T02:33:36;5.20;99.90
8684;DHT22;4379;59.744;18.206;2024-03-29T02:36:05;5.20;99.90
8684;DHT22;4379;59.744;18.206;2024-03-29T02:38:34;5.30;99.90
8684;DHT22;4379;59.744;18.206;2024-03-29T02:41:00;5.30;99.90
8684;DHT22;4379;59.744;18.206;2024-03-29T02:43:26;5.30;99.90
8684;DHT22;4379;59.744;18.206;2024-03-29T02:45:52;5.20;99.90
8684;DHT22;4379;59.744;18.206;2024-03-29T02:48:18;5.30;99.90
8684;DHT22;4379;59.744;18.206;2024-03-29T02:50:44;5.30;99.90
8684;DHT22;4379;59.744;18.206;2024-03-29T02:53:10;5.20;99.90
8684;DHT22;4379;59.744;18.206;2024-03-29T02:55:36;5.20;99.90
8684;DHT22;4379;59.744;18.206;2024-03-29T02:58:02;5.20;99.90
8684;DHT22;4379;59.744;18.206;2024-03-29T03:00:31;5.20;99.90
8684;DHT22;4379;59.744;18.206;2024-03-29T03:02:57;5.20;99.90
8684;DHT22;4379;59.744;18.206;2024-03-29T03:05:23;5.10;99.90
8684;DHT22;4379;59.744;18.206;2024-03-29T03:07:49;5.20;99.90
8684;DHT22;4379;59.744;18.206;2024-03-29T03:10:45;5.20;99.90
8684;DHT22;4379;59.744;18.206;2024-03-29T03:13:29;5.20;99.90
8684;DHT22;4379;59.744;18.206;2024-03-29T03:15:56;5.30;99.90
8684;DHT22;4379;59.744;18.206;2024-03-29T03:18:23;5.20;99.90
8684;DHT22;4379;59.744;18.206;2024-03-29T03:20:53;5.30;99.90
8684;DHT22;4379;59.744;18.206;2024-03-29T03:23:19;5.30;99.90
8684;DHT22;4379;59.744;18.206;2024-03-29T03:25:53;5.20;99.90
8684;DHT22;4379;59.744;18.206;2024-03-29T03:28:20;5.30;99.90
8684;DHT22;4379;59.744;18.206;2024-03-29T03:30:46;5.40;99.90
8684;DHT22;4379;59.744;18.206;2024-03-29T03:33:12;5.40;99.90
8684;DHT22;4379;59.744;18.206;2024-03-29T03:35:38;5.30;99.90
8684;DHT22;4379;59.744;18.206;2024-03-29T03:38:08;5.20;99.90
8684;DHT22;4379;59.744;18.206;2024-03-29T03:40:35;5.30;99.90
8684;DHT22;4379;59.744;18.206;2024-03-29T03:43:02;5.30;99.90
8684;DHT22;4379;59.744;18.206;2024-03-29T03:45:28;5.40;99.90
8684;DHT22;4379;59.744;18.206;2024-03-29T03:47:56;5.40;99.90
8684;DHT22;4379;59.744;18.206;2024-03-29T03:50:23;5.40;99.90
8684;DHT22;4379;59.744;18.206;2024-03-29T03:52:49;5.40;99.90
8684;DHT22;4379;59.744;18.206;2024-03-29T03:55:15;5.30;99.90
8684;DHT22;4379;59.744;18.206;2024-03-29T03:57:41;5.30;99.90
8684;DHT22;4379;59.744;18.206;2024-03-29T04:00:08;5.20;99.90
8684;DHT22;4379;59.744;18.206;2024-03-29T04:02:34;5.20;99.90
8684;DHT22;4379;59.744;18.206;2024-03-29T04:09:52;5.20;99.90
8684;DHT22;4379;59.744;18.206;2024-03-29T04:23:51;5.20;99.90
8684;DHT22;4379;59.744;18.206;2024-03-29T04:27:19;5.30;99.90
8684;DHT22;4379;59.744;18.206;2024-03-29T04:29:45;5.40;99.90
8684;DHT22;4379;59.744;18.206;2024-03-29T04:36:56;5.30;99.90
8684;DHT22;4379;59.744;18.206;2024-03-29T04:47:06;5.30;99.90
8684;DHT22;4379;59.744;18.206;2024-03-29T04:54:23;5.30;99.90
8684;DHT22;4379;59.744;18.206;2024-03-29T05:01:28;5.40;99.90
8684;DHT22;4379;59.744;18.206;2024-03-29T05:03:55;5.40;99.90
8684;DHT22;4379;59.744;18.206;2024-03-29T05:07:06;5.50;99.90
8684;DHT22;4379;59.744;18.206;2024-03-29T05:09:48;5.60;99.90
8684;DHT22;4379;59.744;18.206;2024-03-29T05:12:39;5.50;99.90
8684;DHT22;4379;59.744;18.206;2024-03-29T05:18:14;5.50;99.90
8684;DHT22;4379;59.744;18.206;2024-03-29T05:20:40;5.70;99.90
8684;DHT22;4379;59.744;18.206;2024-03-29T05:23:34;5.60;99.90
8684;DHT22;4379;59.744;18.206;2024-03-29T05:26:00;5.50;99.90
8684;DHT22;4379;59.744;18.206;2024-03-29T05:28:27;5.60;99.90
8684;DHT22;4379;59.744;18.206;2024-03-29T05:30:53;5.70;99.90
8684;DHT22;4379;59.744;18.206;2024-03-29T05:33:19;5.70;99.90
8684;DHT22;4379;59.744;18.206;2024-03-29T05:35:46;5.80;99.90
8684;DHT22;4379;59.744;18.206;2024-03-29T05:38:12;5.80;99.90
8684;DHT22;4379;59.744;18.206;2024-03-29T05:40:38;5.90;99.90
8684;DHT22;4379;59.744;18.206;2024-03-29T05:43:05;5.90;99.90
8684;DHT22;4379;59.744;18.206;2024-03-29T05:45:31;5.90;99.90
8684;DHT22;4379;59.744;18.206;2024-03-29T05:47:58;6.00;99.90
8684;DHT22;4379;59.744;18.206;2024-03-29T05:50:25;6.00;99.90
8684;DHT22;4379;59.744;18.206;2024-03-29T05:52:54;6.00;99.90
8684;DHT22;4379;59.744;18.206;2024-03-29T05:55:20;6.00;99.90
8684;DHT22;4379;59.744;18.206;2024-03-29T05:57:46;6.10;99.90
8684;DHT22;4379;59.744;18.206;2024-03-29T06:00:14;6.20;99.90
8684;DHT22;4379;59.744;18.206;2024-03-29T06:02:42;6.20;99.90
8684;DHT22;4379;59.744;18.206;2024-03-29T06:05:08;6.10;99.90
8684;DHT22;4379;59.744;18.206;2024-03-29T06:07:35;6.20;99.90
8684;DHT22;4379;59.744;18.206;2024-03-29T06:10:01;6.10;99.90
8684;DHT22;4379;59.744;18.206;2024-03-29T06:12:31;6.10;99.90
8684;DHT22;4379;59.744;18.206;2024-03-29T06:14:57;6.20;99.90
8684;DHT22;4379;59.744;18.206;2024-03-29T06:17:42;6.20;99.90
8684;DHT22;4379;59.744;18.206;2024-03-29T06:20:08;6.30;99.90
8684;DHT22;4379;59.744;18.206;2024-03-29T06:22:35;6.20;99.90
8684;DHT22;4379;59.744;18.206;2024-03-29T06:25:01;6.20;99.90
8684;DHT22;4379;59.744;18.206;2024-03-29T06:27:34;6.10;99.90
8684;DHT22;4379;59.744;18.206;2024-03-29T06:30:02;6.10;99.90
8684;DHT22;4379;59.744;18.206;2024-03-29T06:32:29;6.20;99.90
8684;DHT22;4379;59.744;18.206;2024-03-29T06:34:55;6.20;99.90
8684;DHT22;4379;59.744;18.206;2024-03-29T06:37:21;6.30;99.90
8684;DHT22;4379;59.744;18.206;2024-03-29T06:39:53;6.20;99.90
8684;DHT22;4379;59.744;18.206;2024-03-29T06:42:19;6.30;99.90
8684;DHT22;4379;59.744;18.206;2024-03-29T06:44:45;6.40;99.90
8684;DHT22;4379;59.744;18.206;2024-03-29T06:47:11;6.50;99.90
8684;DHT22;4379;59.744;18.206;2024-03-29T06:49:38;6.50;99.90
8684;DHT22;4379;59.744;18.206;2024-03-29T06:52:04;6.60;99.90
8684;DHT22;4379;59.744;18.206;2024-03-29T06:54:30;6.60;99.90
8684;DHT22;4379;59.744;18.206;2024-03-29T06:56:58;6.60;99.90
8684;DHT22;4379;59.744;18.206;2024-03-29T06:59:24;6.70;99.90
8684;DHT22;4379;59.744;18.206;2024-03-29T07:01:50;6.70;99.90
8684;DHT22;4379;59.744;18.206;2024-03-29T07:04:21;6.70;99.90
8684;DHT22;4379;59.744;18.206;2024-03-29T07:06:48;6.80;99.90
8684;DHT22;4379;59.744;18.206;2024-03-29T07:09:17;6.80;99.90
8684;DHT22;4379;59.744;18.206;2024-03-29T07:11:49;6.90;99.90
8684;DHT22;4379;59.744;18.206;2024-03-29T07:14:16;6.80;99.90
8684;DHT22;4379;59.744;18.206;2024-03-29T07:16:43;6.70;99.90
8684;DHT22;4379;59.744;18.206;2024-03-29T07:19:09;6.70;99.90
8684;DHT22;4379;59.744;18.206;2024-03-29T07:21:43;6.80;99.90
8684;DHT22;4379;59.744;18.206;2024-03-29T07:24:09;6.80;99.90
8684;DHT22;4379;59.744;18.206;2024-03-29T07:26:36;6.90;99.90
8684;DHT22;4379;59.744;18.206;2024-03-29T07:29:02;6.90;99.90
8684;DHT22;4379;59.744;18.206;2024-03-29T07:31:31;6.90;99.90
8684;DHT22;4379;59.744;18.206;2024-03-29T07:33:58;6.80;99.90
8684;DHT22;4379;59.744;18.206;2024-03-29T07:36:24;6.80;99.90
8684;DHT22;4379;59.744;18.206;2024-03-29T07:38:53;6.80;99.90
8684;DHT22;4379;59.744;18.206;2024-03-29T07:41:19;6.90;99.90
8684;DHT22;4379;59.744;18.206;2024-03-29T07:43:53;6.90;99.90
8684;DHT22;4379;59.744;18.206;2024-03-29T07:46:23;6.90;99.90
8684;DHT22;4379;59.744;18.206;2024-03-29T07:48:50;7.00;99.90
8684;DHT22;4379;59.744;18.206;2024-03-29T07:51:16;7.00;99.90
8684;DHT22;4379;59.744;18.206;2024-03-29T07:53:42;7.00;99.90
8684;DHT22;4379;59.744;18.206;2024-03-29T07:56:08;7.10;99.90
8684;DHT22;4379;59.744;18.206;2024-03-29T07:58:34;7.20;99.90
8684;DHT22;4379;59.744;18.206;2024-03-29T08:01:00;7.20;99.90
8684;DHT22;4379;59.744;18.206;2024-03-29T08:03:26;7.10;99.90
8684;DHT22;4379;59.744;18.206;2024-03-29T08:06:00;7.20;99.90
8684;DHT22;4379;59.744;18.206;2024-03-29T08:08:30;7.20;99.90
8684;DHT22;4379;59.744;18.206;2024-03-29T08:10:57;7.20;99.90
8684;DHT22;4379;59.744;18.206;2024-03-29T08:13:26;7.10;99.90
8684;DHT22;4379;59.744;18.206;2024-03-29T08:15:59;7.20;99.90
8684;DHT22;4379;59.744;18.206;2024-03-29T08:18:30;7.20;99.90
8684;DHT22;4379;59.744;18.206;2024-03-29T08:20:56;7.20;99.90
8684;DHT22;4379;59.744;18.206;2024-03-29T08:23:23;7.20;99.90
8684;DHT22;4379;59.744;18.206;2024-03-29T08:25:49;7.30;99.90
8684;DHT22;4379;59.744;18.206;2024-03-29T08:28:20;7.10;99.90
8684;DHT22;4379;59.744;18.206;2024-03-29T08:30:56;7.10;99.90
8684;DHT22;4379;59.744;18.206;2024-03-29T08:33:22;6.90;99.90
8684;DHT22;4379;59.744;18.206;2024-03-29T08:35:48;6.90;99.90
8684;DHT22;4379;59.744;18.206;2024-03-29T08:38:14;7.20;99.90
8684;DHT22;4379;59.744;18.206;2024-03-29T08:40:41;7.10;99.90
8684;DHT22;4379;59.744;18.206;2024-03-29T08:43:09;7.10;99.90
8684;DHT22;4379;59.744;18.206;2024-03-29T08:45:35;7.20;99.90
8684;DHT22;4379;59.744;18.206;2024-03-29T08:48:09;7.20;99.90
8684;DHT22;4379;59.744;18.206;2024-03-29T08:50:35;7.30;99.90
8684;DHT22;4379;59.744;18.206;2024-03-29T08:53:03;7.30;99.90
8684;DHT22;4379;59.744;18.206;2024-03-29T08:55:30;7.30;99.90
8684;DHT22;4379;59.744;18.206;2024-03-29T08:58:00;7.30;99.90
8684;DHT22;4379;59.744;18.206;2024-03-29T09:00:27;7.10;99.90
8684;DHT22;4379;59.744;18.206;2024-03-29T09:02:54;7.10;99.90
8684;DHT22;4379;59.744;18.206;2024-03-29T09:05:20;7.20;99.90
8684;DHT22;4379;59.744;18.206;2024-03-29T09:07:48;7.20;99.90
8684;DHT22;4379;59.744;18.206;2024-03-29T09:10:15;7.20;99.90
8684;DHT22;4379;59.744;18.206;2024-03-29T09:12:41;7.30;99.90
8684;DHT22;4379;59.744;18.206;2024-03-29T09:15:07;7.20;99.90
8684;DHT22;4379;59.744;18.206;2024-03-29T09:17:46;7.30;99.90
8684;DHT22;4379;59.744;18.206;2024-03-29T09:20:12;7.20;99.90
8684;DHT22;4379;59.744;18.206;2024-03-29T09:22:39;7.40;99.90
8684;DHT22;4379;59.744;18.206;2024-03-29T09:25:06;7.40;99.90
8684;DHT22;4379;59.744;18.206;2024-03-29T09:27:32;7.50;99.90
8684;DHT22;4379;59.744;18.206;2024-03-29T09:30:03;7.50;99.90
8684;DHT22;4379;59.744;18.206;2024-03-29T09:32:32;7.40;99.90
8684;DHT22;4379;59.744;18.206;2024-03-29T09:34:58;7.40;99.90
8684;DHT22;4379;59.744;18.206;2024-03-29T09:37:26;7.10;99.90
8684;DHT22;4379;59.744;18.206;2024-03-29T09:39:52;7.20;99.90
8684;DHT22;4379;59.744;18.206;2024-03-29T09:42:21;7.10;99.90
8684;DHT22;4379;59.744;18.206;2024-03-29T09:44:50;7.10;99.90
8684;DHT22;4379;59.744;18.206;2024-03-29T09:47:18;7.10;99.90
8684;DHT22;4379;59.744;18.206;2024-03-29T09:49:45;7.20;99.90
8684;DHT22;4379;59.744;18.206;2024-03-29T09:52:14;7.10;99.90
8684;DHT22;4379;59.744;18.206;2024-03-29T09:54:40;7.10;99.90
8684;DHT22;4379;59.744;18.206;2024-03-29T09:57:07;7.10;99.90
8684;DHT22;4379;59.744;18.206;2024-03-29T09:59:34;7.00;99.90
8684;DHT22;4379;59.744;18.206;2024-03-29T10:02:03;7.00;99.90
8684;DHT22;4379;59.744;18.206;2024-03-29T10:04:31;7.10;99.90
8684;DHT22;4379;59.744;18.206;2024-03-29T10:06:58;7.10;99.90
8684;DHT22;4379;59.744;18.206;2024-03-29T10:09:24;7.20;99.90
8684;DHT22;4379;59.744;18.206;2024-03-29T10:11:55;7.30;99.90
8684;DHT22;4379;59.744;18.206;2024-03-29T10:14:21;7.50;99.90
8684;DHT22;4379;59.744;18.206;2024-03-29T10:16:51;7.60;99.90
8684;DHT22;4379;59.744;18.206;2024-03-29T10:19:18;7.50;99.90
8684;DHT22;4379;59.744;18.206;2024-03-29T10:21:44;7.60;99.90
8684;DHT22;4379;59.744;18.206;2024-03-29T10:24:14;7.90;99.90
8684;DHT22;4379;59.744;18.206;2024-03-29T10:26:43;8.00;99.90
8684;DHT22;4379;59.744;18.206;2024-03-29T10:29:10;8.30;99.90
8684;DHT22;4379;59.744;18.206;2024-03-29T10:31:37;8.40;99.90
8684;DHT22;4379;59.744;18.206;2024-03-29T10:34:06;8.50;99.90
8684;DHT22;4379;59.744;18.206;2024-03-29T10:36:34;8.60;99.90
8684;DHT22;4379;59.744;18.206;2024-03-29T10:39:20;8.90;99.90
8684;DHT22;4379;59.744;18.206;2024-03-29T10:41:47;8.90;99.90
8684;DHT22;4379;59.744;18.206;2024-03-29T10:44:15;9.30;99.90
8684;DHT22;4379;59.744;18.206;2024-03-29T10:46:42;9.20;99.90
8684;DHT22;4379;59.744;18.206;2024-03-29T10:49:10;9.10;99.90
8684;DHT22;4379;59.744;18.206;2024-03-29T10:51:41;9.00;99.90
8684;DHT22;4379;59.744;18.206;2024-03-29T10:54:11;8.90;99.90
8684;DHT22;4379;59.744;18.206;2024-03-29T10:56:38;8.80;99.90
8684;DHT22;4379;59.744;18.206;2024-03-29T10:59:27;8.80;99.90
8684;DHT22;4379;59.744;18.206;2024-03-29T11:02:00;8.60;99.90
8684;DHT22;4379;59.744;18.206;2024-03-29T11:04:31;8.50;99.90
8684;DHT22;4379;59.744;18.206;2024-03-29T11:07:04;8.40;99.90
8684;DHT22;4379;59.744;18.206;2024-03-29T11:09:33;8.30;99.90
8684;DHT22;4379;59.744;18.206;2024-03-29T11:12:01;8.10;99.90
8684;DHT22;4379;59.744;18.206;2024-03-29T11:14:37;8.10;99.90
8684;DHT22;4379;59.744;18.206;2024-03-29T11:17:06;8.10;99.90
8684;DHT22;4379;59.744;18.206;2024-03-29T11:19:33;8.10;99.90
8684;DHT22;4379;59.744;18.206;2024-03-29T11:22:00;8.20;99.90
8684;DHT22;4379;59.744;18.206;2024-03-29T11:24:27;8.20;99.90
8684;DHT22;4379;59.744;18.206;2024-03-29T11:26:55;8.10;99.90
8684;DHT22;4379;59.744;18.206;2024-03-29T11:29:24;8.00;99.90
8684;DHT22;4379;59.744;18.206;2024-03-29T11:31:57;8.10;99.90
8684;DHT22;4379;59.744;18.206;2024-03-29T11:34:24;8.20;99.90
8684;DHT22;4379;59.744;18.206;2024-03-29T11:36:51;8.40;99.90
8684;DHT22;4379;59.744;18.206;2024-03-29T11:39:21;8.60;99.90
8684;DHT22;4379;59.744;18.206;2024-03-29T11:41:48;8.90;99.90
8684;DHT22;4379;59.744;18.206;2024-03-29T11:44:15;8.90;99.90
8684;DHT22;4379;59.744;18.206;2024-03-29T11:46:42;8.80;99.90
8684;DHT22;4379;59.744;18.206;2024-03-29T11:49:12;8.70;99.90
8684;DHT22;4379;59.744;18.206;2024-03-29T11:51:40;8.60;99.90
8684;DHT22;4379;59.744;18.206;2024-03-29T11:54:07;8.50;99.90
8684;DHT22;4379;59.744;18.206;2024-03-29T11:56:33;8.40;99.90
8684;DHT22;4379;59.744;18.206;2024-03-29T11:58:59;8.40;99.90
8684;DHT22;4379;59.744;18.206;2024-03-29T12:01:26;8.40;99.90
8684;DHT22;4379;59.744;18.206;2024-03-29T12:03:55;8.30;99.90
8684;DHT22;4379;59.744;18.206;2024-03-29T12:06:21;8.50;99.90
8684;DHT22;4379;59.744;18.206;2024-03-29T12:08:47;8.60;99.90
8684;DHT22;4379;59.744;18.206;2024-03-29T12:11:15;8.80;99.90
8684;DHT22;4379;59.744;18.206;2024-03-29T12:13:44;8.70;99.90
8684;DHT22;4379;59.744;18.206;2024-03-29T12:16:10;8.60;99.90
8684;DHT22;4379;59.744;18.206;2024-03-29T12:18:36;8.40;99.90
8684;DHT22;4379;59.744;18.206;2024-03-29T12:21:02;8.40;99.90
8684;DHT22;4379;59.744;18.206;2024-03-29T12:23:29;8.50;99.90
8684;DHT22;4379;59.744;18.206;2024-03-29T12:25:56;8.70;99.90
8684;DHT22;4379;59.744;18.206;2024-03-29T12:28:26;8.70;99.90
8684;DHT22;4379;59.744;18.206;2024-03-29T12:30:53;8.60;99.90
8684;DHT22;4379;59.744;18.206;2024-03-29T12:33:22;8.80;99.90
8684;DHT22;4379;59.744;18.206;2024-03-29T12:35:50;9.30;99.90
8684;DHT22;4379;59.744;18.206;2024-03-29T12:38:19;9.50;99.90
8684;DHT22;4379;59.744;18.206;2024-03-29T12:40:47;9.90;99.90
8684;DHT22;4379;59.744;18.206;2024-03-29T12:43:23;10.10;99.90
8684;DHT22;4379;59.744;18.206;2024-03-29T12:45:50;9.90;99.90
8684;DHT22;4379;59.744;18.206;2024-03-29T12:48:19;10.20;99.90
8684;DHT22;4379;59.744;18.206;2024-03-29T12:50:46;10.20;99.90
8684;DHT22;4379;59.744;18.206;2024-03-29T12:53:14;10.20;99.90
8684;DHT22;4379;59.744;18.206;2024-03-29T12:55:41;10.00;99.90
8684;DHT22;4379;59.744;18.206;2024-03-29T12:58:15;10.20;99.90
8684;DHT22;4379;59.744;18.206;2024-03-29T13:00:43;10.30;99.90
8684;DHT22;4379;59.744;18.206;2024-03-29T13:03:10;10.20;99.90
8684;DHT22;4379;59.744;18.206;2024-03-29T13:05:38;10.10;99.90
8684;DHT22;4379;59.744;18.206;2024-03-29T13:08:08;9.90;99.90
8684;DHT22;4379;59.744;18.206;2024-03-29T13:10:39;9.70;99.90
8684;DHT22;4379;59.744;18.206;2024-03-29T13:13:06;9.50;99.90
8684;DHT22;4379;59.744;18.206;2024-03-29T13:15:35;9.60;99.90
8684;DHT22;4379;59.744;18.206;2024-03-29T13:18:03;9.90;99.90
8684;DHT22;4379;59.744;18.206;2024-03-29T13:20:30;10.10;99.90
8684;DHT22;4379;59.744;18.206;2024-03-29T13:22:57;10.00;99.90
8684;DHT22;4379;59.744;18.206;2024-03-29T13:25:23;10.20;99.90
8684;DHT22;4379;59.744;18.206;2024-03-29T13:27:52;10.30;99.90
8684;DHT22;4379;59.744;18.206;2024-03-29T13:30:24;10.60;99.90
8684;DHT22;4379;59.744;18.206;2024-03-29T13:32:52;10.90;99.90
8684;DHT22;4379;59.744;18.206;2024-03-29T13:35:18;10.80;99.90
8684;DHT22;4379;59.744;18.206;2024-03-29T13:37:48;11.00;99.90
8684;DHT22;4379;59.744;18.206;2024-03-29T13:40:20;10.90;99.90
8684;DHT22;4379;59.744;18.206;2024-03-29T13:42:46;10.70;99.90
8684;DHT22;4379;59.744;18.206;2024-03-29T13:45:14;10.80;99.90
8684;DHT22;4379;59.744;18.206;2024-03-29T13:47:42;10.70;99.90
8684;DHT22;4379;59.744;18.206;2024-03-29T13:50:09;10.60;99.90
8684;DHT22;4379;59.744;18.206;2024-03-29T13:52:36;10.60;99.90
8684;DHT22;4379;59.744;18.206;2024-03-29T13:55:04;10.70;99.90
8684;DHT22;4379;59.744;18.206;2024-03-29T13:57:31;10.40;99.90
8684;DHT22;4379;59.744;18.206;2024-03-29T13:59:58;10.40;99.90
8684;DHT22;4379;59.744;18.206;2024-03-29T14:02:25;10.50;99.90
8684;DHT22;4379;59.744;18.206;2024-03-29T14:04:55;10.40;99.90
8684;DHT22;4379;59.744;18.206;2024-03-29T14:07:21;10.50;99.90
8684;DHT22;4379;59.744;18.206;2024-03-29T14:09:52;10.40;99.90
8684;DHT22;4379;59.744;18.206;2024-03-29T14:12:22;10.10;99.90
8684;DHT22;4379;59.744;18.206;2024-03-29T14:14:51;10.10;99.90
8684;DHT22;4379;59.744;18.206;2024-03-29T14:17:19;10.10;99.90
8684;DHT22;4379;59.744;18.206;2024-03-29T14:19:45;10.10;99.90
8684;DHT22;4379;59.744;18.206;2024-03-29T14:22:12;10.20;99.90
8684;DHT22;4379;59.744;18.206;2024-03-29T14:24:41;10.00;99.90
8684;DHT22;4379;59.744;18.206;2024-03-29T14:27:07;9.90;99.90
8684;DHT22;4379;59.744;18.206;2024-03-29T14:29:34;10.10;99.90
8684;DHT22;4379;59.744;18.206;2024-03-29T14:32:02;10.10;99.90
8684;DHT22;4379;59.744;18.206;2024-03-29T14:34:28;10.10;99.90
8684;DHT22;4379;59.744;18.206;2024-03-29T14:36:58;10.10;99.90
8684;DHT22;4379;59.744;18.206;2024-03-29T14:39:25;10.00;99.90
8684;DHT22;4379;59.744;18.206;2024-03-29T14:41:51;10.00;99.90
8684;DHT22;4379;59.744;18.206;2024-03-29T14:44:19;10.00;99.90
8684;DHT22;4379;59.744;18.206;2024-03-29T14:46:47;10.00;99.90
8684;DHT22;4379;59.744;18.206;2024-03-29T14:49:13;10.00;99.90
8684;DHT22;4379;59.744;18.206;2024-03-29T14:51:44;10.00;99.90
8684;DHT22;4379;59.744;18.206;2024-03-29T14:54:13;9.90;99.90
8684;DHT22;4379;59.744;18.206;2024-03-29T14:56:39;9.80;99.90
8684;DHT22;4379;59.744;18.206;2024-03-29T14:59:08;9.80;99.90
8684;DHT22;4379;59.744;18.206;2024-03-29T15:01:36;9.80;99.90
8684;DHT22;4379;59.744;18.206;2024-03-29T15:04:02;10.00;99.90
8684;DHT22;4379;59.744;18.206;2024-03-29T15:06:29;9.90;99.90
8684;DHT22;4379;59.744;18.206;2024-03-29T15:08:56;10.20;99.90
8684;DHT22;4379;59.744;18.206;2024-03-29T15:11:27;10.20;99.90
8684;DHT22;4379;59.744;18.206;2024-03-29T15:13:53;10.30;99.90
8684;DHT22;4379;59.744;18.206;2024-03-29T15:16:19;10.30;99.90
8684;DHT22;4379;59.744;18.206;2024-03-29T15:18:47;10.10;99.90
8684;DHT22;4379;59.744;18.206;2024-03-29T15:21:13;10.20;99.90
8684;DHT22;4379;59.744;18.206;2024-03-29T15:23:40;10.00;99.90
8684;DHT22;4379;59.744;18.206;2024-03-29T15:26:10;10.00;99.90
8684;DHT22;4379;59.744;18.206;2024-03-29T15:28:39;9.90;99.90
8684;DHT22;4379;59.744;18.206;2024-03-29T15:31:24;9.90;99.90
8684;DHT22;4379;59.744;18.206;2024-03-29T15:33:51;9.90;99.90
8684;DHT22;4379;59.744;18.206;2024-03-29T15:36:20;10.10;99.90
8684;DHT22;4379;59.744;18.206;2024-03-29T15:38:49;10.30;99.90
8684;DHT22;4379;59.744;18.206;2024-03-29T15:41:20;10.40;99.90
8684;DHT22;4379;59.744;18.206;2024-03-29T15:43:46;10.40;99.90
8684;DHT22;4379;59.744;18.206;2024-03-29T15:46:12;10.40;99.90
8684;DHT22;4379;59.744;18.206;2024-03-29T15:48:39;10.40;99.90
8684;DHT22;4379;59.744;18.206;2024-03-29T15:51:08;10.30;99.90
8684;DHT22;4379;59.744;18.206;2024-03-29T15:53:37;10.30;99.90
8684;DHT22;4379;59.744;18.206;2024-03-29T15:56:05;10.30;99.90
8684;DHT22;4379;59.744;18.206;2024-03-29T15:58:34;10.30;99.90
8684;DHT22;4379;59.744;18.206;2024-03-29T16:01:00;10.10;99.90
8684;DHT22;4379;59.744;18.206;2024-03-29T16:03:27;10.10;99.90
8684;DHT22;4379;59.744;18.206;2024-03-29T16:05:53;10.20;99.90
8684;DHT22;4379;59.744;18.206;2024-03-29T16:08:23;10.00;99.90
8684;DHT22;4379;59.744;18.206;2024-03-29T16:11:07;10.00;99.90
8684;DHT22;4379;59.744;18.206;2024-03-29T16:13:33;10.10;99.90
8684;DHT22;4379;59.744;18.206;2024-03-29T16:16:01;10.10;99.90
8684;DHT22;4379;59.744;18.206;2024-03-29T16:18:28;10.10;99.90
8684;DHT22;4379;59.744;18.206;2024-03-29T16:20:56;10.10;99.90
8684;DHT22;4379;59.744;18.206;2024-03-29T16:23:23;10.00;99.90
8684;DHT22;4379;59.744;18.206;2024-03-29T16:25:49;9.80;99.90
8684;DHT22;4379;59.744;18.206;2024-03-29T16:28:20;9.60;99.90
8684;DHT22;4379;59.744;18.206;2024-03-29T16:30:48;9.50;99.90
8684;DHT22;4379;59.744;18.206;2024-03-29T16:33:15;9.40;99.90
8684;DHT22;4379;59.744;18.206;2024-03-29T16:35:44;9.30;99.90
8684;DHT22;4379;59.744;18.206;2024-03-29T16:38:11;9.30;99.90
8684;DHT22;4379;59.744;18.206;2024-03-29T16:40:38;9.30;99.90
8684;DHT22;4379;59.744;18.206;2024-03-29T16:43:05;9.40;99.90
8684;DHT22;4379;59.744;18.206;2024-03-29T16:45:32;9.40;99.90
8684;DHT22;4379;59.744;18.206;2024-03-29T16:48:01;9.40;99.90